Time;durP1;ratioP1;P1;durP2;ratioP2;P2;SDS_P1;SDS_P2;PMS_P1;PMS_P2;Temp;Humidity;BMP_temperature;BMP_pressure;BME280_temperature;BME280_humidity;BME280_pressure;Samples;Min_cycle;Max_cycle;Signal;HPM_P1;HPM_P2
2022/11/22 00:00:39;;;;;;;3.10;0.85;;;4.80;99.90;;;;;;4911901;29;20344;-73
2022/11/22 00:03:05;;;;;;;6.93;1.20;;;4.80;99.90;;;;;;4913628;29;20566;-73
2022/11/22 00:05:30;;;;;;;5.88;1.23;;;4.80;99.90;;;;;;4916012;29;20146;-73
2022/11/22 00:07:56;;;;;;;6.60;0.80;;;4.90;99.90;;;;;;4911166;29;20036;-73
2022/11/22 00:10:22;;;;;;;5.45;1.10;;;4.90;99.90;;;;;;4916259;29;20043;-73
2022/11/22 00:12:47;;;;;;;5.88;0.88;;;4.90;99.90;;;;;;4924463;29;20031;-73
2022/11/22 00:15:13;;;;;;;3.20;0.85;;;4.90;99.90;;;;;;4923525;29;20103;-73
2022/11/22 00:17:39;;;;;;;3.97;0.93;;;4.90;99.90;;;;;;4922937;29;20341;-74
2022/11/22 00:20:06;;;;;;;7.13;1.17;;;4.90;99.90;;;;;;4925538;29;20028;-73
2022/11/22 00:22:32;;;;;;;2.70;0.60;;;4.90;99.90;;;;;;4916289;29;20032;-73
2022/11/22 00:24:58;;;;;;;5.78;1.38;;;4.90;99.90;;;;;;4919348;29;20039;-73
2022/11/22 00:27:23;;;;;;;4.28;0.80;;;4.90;99.90;;;;;;4924729;29;20308;-73
2022/11/22 00:29:49;;;;;;;2.58;0.90;;;4.80;99.90;;;;;;4922327;29;20376;-73
2022/11/22 00:32:15;;;;;;;8.50;0.80;;;4.80;99.90;;;;;;4916349;29;20035;-73
2022/11/22 00:34:40;;;;;;;4.05;0.63;;;4.80;99.90;;;;;;4906421;29;20036;-73
2022/11/22 00:37:06;;;;;;;4.68;1.02;;;4.70;99.90;;;;;;4924144;29;20074;-73
2022/11/22 00:39:32;;;;;;;3.70;0.82;;;4.70;99.90;;;;;;4908887;29;20045;-73
2022/11/22 00:41:58;;;;;;;4.95;0.90;;;4.70;99.90;;;;;;4922408;29;20326;-73
2022/11/22 00:44:23;;;;;;;3.95;1.27;;;4.70;99.90;;;;;;4923195;29;20095;-73
2022/11/22 00:46:49;;;;;;;2.25;0.60;;;4.70;99.90;;;;;;4919146;29;20461;-73
2022/11/22 00:49:14;;;;;;;7.22;0.80;;;4.70;99.90;;;;;;4905561;29;20432;-73
2022/11/22 00:51:40;;;;;;;2.70;0.90;;;4.70;99.90;;;;;;4919136;29;20511;-73
2022/11/22 00:54:06;;;;;;;7.45;1.08;;;4.70;99.90;;;;;;4908378;29;20039;-73
2022/11/22 00:56:32;;;;;;;3.00;0.70;;;4.70;99.90;;;;;;4913597;29;20040;-73
2022/11/22 00:58:58;;;;;;;4.00;1.20;;;4.70;99.90;;;;;;4924378;29;20058;-73
2022/11/22 01:01:24;;;;;;;9.05;1.15;;;4.60;99.90;;;;;;4921330;29;20043;-73
2022/11/22 01:03:49;;;;;;;7.40;1.05;;;4.60;99.90;;;;;;4923230;29;20054;-74
2022/11/22 01:06:15;;;;;;;4.03;0.60;;;4.50;99.90;;;;;;4923083;29;20078;-73
2022/11/22 01:08:41;;;;;;;3.90;1.33;;;4.50;99.90;;;;;;4906946;29;20032;-73
2022/11/22 01:11:06;;;;;;;7.00;0.70;;;4.40;99.90;;;;;;4921857;29;20038;-73
2022/11/22 01:13:32;;;;;;;4.25;0.85;;;4.50;99.90;;;;;;4907090;29;20182;-73
2022/11/22 01:16:03;;;;;;;6.22;0.90;;;4.40;99.90;;;;;;4907031;29;20044;-74
2022/11/22 01:18:30;;;;;;;6.85;0.75;;;4.50;99.90;;;;;;4923214;29;20063;-73
2022/11/22 01:20:55;;;;;;;2.25;0.80;;;4.50;99.90;;;;;;4914866;29;20129;-73
2022/11/22 01:23:21;;;;;;;4.05;0.57;;;4.50;99.90;;;;;;4922170;29;20040;-73
2022/11/22 01:25:47;;;;;;;6.72;1.30;;;4.50;99.90;;;;;;4926018;29;20047;-73
2022/11/22 01:28:12;;;;;;;5.47;0.85;;;4.40;99.90;;;;;;4921412;29;20039;-73
2022/11/22 01:30:39;;;;;;;2.05;0.60;;;4.40;99.90;;;;;;4923377;29;20086;-73
2022/11/22 01:33:05;;;;;;;3.22;0.75;;;4.40;99.90;;;;;;4923601;29;20333;-74
2022/11/22 01:35:30;;;;;;;4.13;0.60;;;4.40;99.90;;;;;;4912166;29;20292;-74
2022/11/22 01:37:56;;;;;;;2.95;0.63;;;4.30;99.90;;;;;;4918455;29;20164;-74
2022/11/22 01:40:22;;;;;;;5.75;1.05;;;4.30;99.90;;;;;;4911041;29;20507;-73
2022/11/22 01:42:50;;;;;;;4.55;0.73;;;4.40;99.90;;;;;;4913199;29;20204;-74
2022/11/22 01:45:28;;;;;;;3.97;0.93;;;4.30;99.90;;;;;;4910387;29;20392;-73
2022/11/22 01:48:01;;;;;;;2.55;0.60;;;4.30;99.90;;;;;;4921036;29;20036;-74
2022/11/22 01:50:28;;;;;;;2.90;0.70;;;4.30;99.90;;;;;;4924587;29;20046;-73
2022/11/22 01:52:57;;;;;;;3.58;0.70;;;4.20;99.90;;;;;;4923317;29;20200;-73
2022/11/22 01:55:22;;;;;;;5.60;0.70;;;4.20;99.90;;;;;;4925321;29;20134;-73
2022/11/22 01:57:48;;;;;;;8.48;0.90;;;4.20;99.90;;;;;;4923894;29;20119;-73
2022/11/22 02:00:16;;;;;;;5.43;0.80;;;4.20;99.90;;;;;;4924926;28;20036;-73
2022/11/22 02:02:52;;;;;;;3.03;0.80;;;4.20;99.90;;;;;;4923562;29;20146;-74
2022/11/22 02:05:20;;;;;;;5.63;0.65;;;4.10;99.90;;;;;;4906440;29;20040;-74
2022/11/22 02:07:54;;;;;;;6.20;0.90;;;4.20;99.90;;;;;;4914712;29;20134;-73
2022/11/22 02:10:23;;;;;;;8.02;0.85;;;4.20;99.90;;;;;;4924501;29;20393;-73
2022/11/22 02:12:50;;;;;;;1.73;0.70;;;4.20;99.90;;;;;;4920917;29;20408;-73
2022/11/22 02:15:16;;;;;;;5.63;1.02;;;4.20;99.90;;;;;;4922783;29;20534;-73
2022/11/22 02:17:41;;;;;;;3.35;0.57;;;4.20;99.90;;;;;;4921483;29;20063;-73
2022/11/22 02:20:08;;;;;;;6.90;1.30;;;4.10;99.90;;;;;;4921709;29;20035;-74
2022/11/22 02:22:47;;;;;;;9.95;1.00;;;4.20;99.90;;;;;;4924264;29;20187;-73
2022/11/22 02:25:26;;;;;;;4.13;1.13;;;4.20;99.90;;;;;;4908699;29;20034;-74
2022/11/22 02:27:52;;;;;;;3.58;0.80;;;4.10;99.90;;;;;;4924395;29;20574;-73
2022/11/22 02:30:18;;;;;;;2.35;1.08;;;4.10;99.90;;;;;;4923445;29;20377;-73
2022/11/22 02:32:44;;;;;;;3.13;0.68;;;4.20;99.90;;;;;;4911424;29;20476;-73
2022/11/22 02:35:19;;;;;;;7.03;1.15;;;4.20;99.90;;;;;;4918582;29;20036;-74
2022/11/22 02:37:45;;;;;;;2.45;0.80;;;4.10;99.90;;;;;;4918983;29;20435;-73
2022/11/22 02:40:13;;;;;;;3.53;0.80;;;4.10;99.90;;;;;;4924603;29;20038;-74
2022/11/22 02:42:43;;;;;;;6.22;0.80;;;4.10;99.90;;;;;;4921712;29;20500;-73
2022/11/22 02:45:09;;;;;;;3.67;0.77;;;4.20;99.90;;;;;;4923369;29;20099;-73
2022/11/22 02:47:34;;;;;;;5.68;1.23;;;4.10;99.90;;;;;;4921878;29;20035;-74
2022/11/22 02:50:00;;;;;;;6.07;1.00;;;4.10;99.90;;;;;;4914580;29;20110;-72
2022/11/22 02:52:26;;;;;;;5.03;0.93;;;4.10;99.90;;;;;;4922796;29;20031;-72
2022/11/22 02:54:51;;;;;;;3.55;0.60;;;4.10;99.90;;;;;;4914238;29;20415;-74
2022/11/22 02:57:17;;;;;;;7.05;0.73;;;4.10;99.90;;;;;;4913687;29;20031;-74
2022/11/22 02:59:42;;;;;;;3.03;0.70;;;4.10;99.90;;;;;;4922314;29;20043;-74
2022/11/22 03:02:08;;;;;;;3.78;1.00;;;4.10;99.90;;;;;;4921014;29;20107;-74
2022/11/22 03:04:34;;;;;;;11.63;0.90;;;4.00;99.90;;;;;;4922970;29;20154;-74
2022/11/22 03:07:00;;;;;;;2.25;0.82;;;4.00;99.90;;;;;;4909945;29;20028;-74
2022/11/22 03:09:27;;;;;;;3.17;0.80;;;4.00;99.90;;;;;;4924342;29;20039;-74
2022/11/22 03:11:53;;;;;;;6.32;0.90;;;3.90;99.90;;;;;;4915513;29;20404;-74
2022/11/22 03:14:18;;;;;;;5.43;0.80;;;3.90;99.90;;;;;;4911187;29;20028;-74
2022/11/22 03:16:45;;;;;;;3.95;0.70;;;3.90;99.90;;;;;;4923785;29;20047;-73
2022/11/22 03:19:12;;;;;;;1.35;0.50;;;3.90;99.90;;;;;;4923350;29;20070;-74
2022/11/22 03:21:39;;;;;;;4.72;0.95;;;3.90;99.90;;;;;;4920888;29;20036;-74
2022/11/22 03:24:05;;;;;;;5.20;0.80;;;3.90;99.90;;;;;;4922372;29;20036;-74
2022/11/22 03:26:31;;;;;;;6.07;1.27;;;3.90;99.90;;;;;;4906170;29;20082;-71
2022/11/22 03:28:57;;;;;;;4.85;0.75;;;3.90;99.90;;;;;;4914422;29;20511;-75
2022/11/22 03:31:23;;;;;;;5.75;1.25;;;3.90;99.90;;;;;;4922809;29;20476;-74
2022/11/22 03:33:48;;;;;;;5.20;0.70;;;3.90;99.90;;;;;;4924087;29;20043;-74
2022/11/22 03:36:14;;;;;;;3.83;0.75;;;3.90;99.90;;;;;;4920435;29;20039;-75
2022/11/22 03:38:39;;;;;;;4.05;0.90;;;3.90;99.90;;;;;;4912322;29;20082;-74
2022/11/22 03:41:05;;;;;;;1.25;0.57;;;4.00;99.90;;;;;;4924369;29;20042;-74
2022/11/22 03:43:30;;;;;;;4.18;0.68;;;4.00;99.90;;;;;;4924263;29;20035;-74
2022/11/22 03:45:56;;;;;;;5.68;0.95;;;4.00;99.90;;;;;;4924244;29;20028;-74
2022/11/22 03:48:22;;;;;;;2.72;0.85;;;3.90;99.90;;;;;;4923923;29;20535;-74
2022/11/22 03:50:47;;;;;;;3.67;0.88;;;4.00;99.90;;;;;;4917275;29;20031;-74
2022/11/22 03:53:13;;;;;;;5.25;0.80;;;3.90;99.90;;;;;;4922136;29;20032;-75
2022/11/22 03:55:39;;;;;;;5.70;0.88;;;4.00;99.90;;;;;;4909071;29;20055;-74
2022/11/22 03:58:05;;;;;;;4.10;0.65;;;4.00;99.90;;;;;;4907359;29;20054;-74
2022/11/22 04:00:31;;;;;;;2.00;0.93;;;4.00;99.90;;;;;;4912322;29;20035;-74
2022/11/22 04:02:56;;;;;;;7.72;1.00;;;4.00;99.90;;;;;;4907513;29;20055;-73
2022/11/22 04:05:22;;;;;;;6.20;0.93;;;4.10;99.90;;;;;;4919202;29;20031;-74
2022/11/22 04:07:48;;;;;;;4.68;0.90;;;4.10;99.90;;;;;;4926861;29;20114;-73
2022/11/22 04:10:13;;;;;;;3.33;0.80;;;4.10;99.90;;;;;;4925786;29;20392;-74
2022/11/22 04:12:39;;;;;;;5.15;1.13;;;4.10;99.90;;;;;;4926011;29;20042;-73
2022/11/22 04:15:05;;;;;;;5.22;1.00;;;4.10;99.90;;;;;;4921665;29;20098;-74
2022/11/22 04:17:40;;;;;;;2.22;0.68;;;4.10;99.90;;;;;;4925801;29;20078;-73
2022/11/22 04:23:22;;;;;;;5.50;0.80;;;4.10;99.90;;;;;;4867478;29;20136;-73
2022/11/22 04:25:50;;;;;;;2.10;0.60;;;4.10;99.90;;;;;;4909820;29;20125;-73
2022/11/22 04:28:18;;;;;;;7.00;0.93;;;4.10;99.90;;;;;;4927520;29;20122;-73
2022/11/22 04:33:28;;;;;;;5.45;0.82;;;4.00;99.90;;;;;;4926686;29;20107;-73
2022/11/22 04:35:54;;;;;;;2.53;0.73;;;4.00;99.90;;;;;;4922413;29;20043;-74
2022/11/22 04:38:21;;;;;;;2.92;0.73;;;4.00;99.90;;;;;;4921541;29;20028;-73
2022/11/22 04:40:47;;;;;;;1.05;0.50;;;4.00;99.90;;;;;;4916972;29;20036;-74
2022/11/22 04:46:12;;;;;;;7.25;1.48;;;4.00;99.90;;;;;;4924289;29;20067;-73
2022/11/22 04:48:38;;;;;;;5.68;1.05;;;4.00;99.90;;;;;;4927026;29;20067;-73
2022/11/22 04:53:49;;;;;;;4.10;1.08;;;3.90;99.90;;;;;;4915085;29;20537;-73
2022/11/22 04:56:14;;;;;;;6.28;1.10;;;4.00;99.90;;;;;;4922642;29;20039;-74
2022/11/22 04:58:40;;;;;;;6.38;1.20;;;4.00;99.90;;;;;;4927204;29;20031;-74
2022/11/22 05:01:06;;;;;;;6.60;0.60;;;3.90;99.90;;;;;;4925705;29;20578;-73
2022/11/22 05:03:31;;;;;;;5.25;0.80;;;3.90;99.90;;;;;;4916692;29;20873;-74
2022/11/22 05:06:01;;;;;;;5.15;0.77;;;3.90;99.90;;;;;;4923599;29;20488;-74
2022/11/22 05:08:27;;;;;;;2.42;0.77;;;3.90;99.90;;;;;;4919359;29;20039;-74
2022/11/22 05:10:55;;;;;;;2.13;0.73;;;3.90;99.90;;;;;;4914314;29;20036;-74
2022/11/22 05:13:33;;;;;;;6.53;1.00;;;3.90;99.90;;;;;;4923360;29;20118;-74
2022/11/22 05:15:59;;;;;;;9.27;1.27;;;3.90;99.90;;;;;;4921979;29;20130;-74
2022/11/22 05:18:25;;;;;;;9.85;1.25;;;3.90;99.90;;;;;;4926387;29;20119;-74
2022/11/22 05:20:51;;;;;;;5.15;0.88;;;3.90;99.90;;;;;;4924516;29;20471;-74
2022/11/22 05:26:02;;;;;;;4.60;1.02;;;3.90;99.90;;;;;;4920424;29;20110;-74
2022/11/22 05:28:32;;;;;;;8.10;1.20;;;3.90;99.90;;;;;;4920585;29;20039;-74
2022/11/22 05:30:58;;;;;;;7.28;0.90;;;4.00;99.90;;;;;;4923494;29;20116;-74
2022/11/22 05:33:24;;;;;;;5.30;0.77;;;4.00;99.90;;;;;;4924660;29;20062;-75
2022/11/22 05:35:50;;;;;;;7.15;0.88;;;4.00;99.90;;;;;;4915428;29;20507;-75
2022/11/22 05:38:16;;;;;;;4.00;0.80;;;4.10;99.90;;;;;;4922425;29;20083;-74
2022/11/22 05:40:41;;;;;;;7.25;1.10;;;4.20;99.90;;;;;;4914188;29;20074;-74
2022/11/22 05:43:07;;;;;;;4.22;0.80;;;4.20;99.90;;;;;;4923548;29;20043;-74
2022/11/22 05:45:33;;;;;;;8.15;0.82;;;4.30;99.90;;;;;;4922044;29;20286;-75
2022/11/22 05:47:59;;;;;;;4.32;1.10;;;4.30;99.90;;;;;;4925426;29;20059;-74
2022/11/22 05:50:24;;;;;;;9.25;1.38;;;4.30;99.90;;;;;;4923156;29;20028;-74
2022/11/22 05:52:50;;;;;;;4.72;0.60;;;4.40;99.90;;;;;;4921919;29;20095;-74
2022/11/22 05:55:16;;;;;;;2.58;0.75;;;4.40;99.90;;;;;;4923710;29;20122;-74
2022/11/22 05:57:41;;;;;;;5.57;0.93;;;4.40;99.90;;;;;;4914828;29;20090;-74
2022/11/22 06:00:08;;;;;;;6.15;0.95;;;4.40;99.90;;;;;;4924592;29;20395;-74
2022/11/22 06:02:33;;;;;;;7.93;0.90;;;4.40;99.90;;;;;;4918371;29;20587;-74
2022/11/22 06:04:59;;;;;;;3.97;1.00;;;4.50;99.90;;;;;;4906020;29;20039;-74
2022/11/22 06:07:24;;;;;;;3.90;0.68;;;4.40;99.90;;;;;;4919986;29;20043;-75
2022/11/22 06:09:50;;;;;;;4.40;0.93;;;4.50;99.90;;;;;;4921765;29;20031;-75
2022/11/22 06:12:15;;;;;;;4.22;0.60;;;4.50;99.90;;;;;;4924719;29;20050;-74
2022/11/22 06:14:44;;;;;;;1.80;0.60;;;4.40;99.90;;;;;;4921766;29;20138;-75
2022/11/22 06:17:10;;;;;;;6.22;0.80;;;4.50;99.90;;;;;;4923711;29;20034;-74
2022/11/22 06:19:35;;;;;;;2.63;0.57;;;4.50;99.90;;;;;;4918019;29;20032;-75
2022/11/22 06:22:01;;;;;;;4.72;0.68;;;4.50;99.90;;;;;;4922551;29;20027;-74
2022/11/22 06:24:27;;;;;;;3.03;1.17;;;4.50;99.90;;;;;;4922782;29;20531;-74
2022/11/22 06:26:52;;;;;;;5.63;0.90;;;4.40;99.90;;;;;;4921700;29;20032;-74
2022/11/22 06:29:18;;;;;;;4.13;1.20;;;4.40;99.90;;;;;;4923922;29;20491;-74
2022/11/22 06:31:43;;;;;;;3.83;1.10;;;4.40;99.90;;;;;;4922427;29;20035;-74
2022/11/22 06:34:12;;;;;;;2.80;0.90;;;4.40;99.90;;;;;;4924645;29;20333;-74
2022/11/22 06:36:38;;;;;;;3.80;0.88;;;4.30;99.90;;;;;;4922618;29;20044;-75
2022/11/22 06:39:04;;;;;;;3.75;1.40;;;4.30;99.90;;;;;;4919927;29;20395;-74
2022/11/22 06:41:36;;;;;;;6.40;0.90;;;4.20;99.90;;;;;;4921279;29;20104;-74
2022/11/22 06:44:08;;;;;;;5.35;0.80;;;4.20;99.90;;;;;;4921130;29;20031;-74
2022/11/22 06:46:35;;;;;;;8.07;1.13;;;4.20;99.90;;;;;;4909418;29;20059;-74
2022/11/22 06:49:01;;;;;;;4.90;0.98;;;4.10;99.90;;;;;;4925851;28;20281;-74
2022/11/22 06:51:29;;;;;;;4.30;0.90;;;4.20;99.90;;;;;;4925562;29;20040;-75
2022/11/22 06:53:56;;;;;;;3.25;0.88;;;4.20;99.90;;;;;;4917178;29;20403;-74
2022/11/22 06:56:27;;;;;;;8.23;1.10;;;4.20;99.90;;;;;;4924145;29;20032;-74
2022/11/22 06:58:53;;;;;;;6.75;1.05;;;4.20;99.90;;;;;;4923205;29;20150;-74
2022/11/22 07:01:27;;;;;;;9.73;0.88;;;4.20;99.90;;;;;;4919691;29;20032;-74
2022/11/22 07:03:59;;;;;;;6.07;0.90;;;4.20;99.90;;;;;;4905112;29;20460;-74
2022/11/22 07:06:30;;;;;;;6.80;2.55;;;4.20;99.90;;;;;;4924248;29;20575;-75
2022/11/22 07:08:56;;;;;;;40.40;17.92;;;4.20;99.90;;;;;;4919249;29;20044;-75
2022/11/22 07:11:24;;;;;;;16.02;5.13;;;4.20;99.90;;;;;;4916896;29;20040;-74
2022/11/22 07:13:50;;;;;;;8.48;2.10;;;4.20;99.90;;;;;;4922811;29;20349;-74
2022/11/22 07:16:19;;;;;;;5.57;1.23;;;4.20;99.90;;;;;;4913501;29;20048;-74
2022/11/22 07:18:45;;;;;;;5.93;0.90;;;4.20;99.90;;;;;;4924611;28;20015;-74
2022/11/22 07:21:12;;;;;;;4.60;1.10;;;4.20;99.90;;;;;;4933194;29;20279;-74
2022/11/22 07:23:39;;;;;;;5.90;0.85;;;4.20;99.90;;;;;;4928495;29;20160;-74
2022/11/22 07:26:05;;;;;;;5.95;1.02;;;4.30;99.90;;;;;;4936361;29;20495;-75
2022/11/22 07:28:31;;;;;;;3.75;0.90;;;4.20;99.90;;;;;;4937237;28;20274;-75
2022/11/22 07:31:02;;;;;;;5.85;0.85;;;4.30;99.90;;;;;;4929704;29;20027;-74
2022/11/22 07:33:28;;;;;;;4.85;1.23;;;4.30;99.90;;;;;;4938220;28;20039;-75
2022/11/22 07:35:55;;;;;;;7.90;0.73;;;4.30;99.90;;;;;;4927149;29;20051;-74
2022/11/22 07:38:21;;;;;;;5.65;0.77;;;4.40;99.90;;;;;;4921722;29;20035;-74
2022/11/22 07:40:46;;;;;;;6.28;0.90;;;4.40;99.90;;;;;;4917316;28;20060;-75
2022/11/22 07:43:12;;;;;;;3.80;0.80;;;4.50;99.90;;;;;;4921968;29;20043;-74
2022/11/22 07:45:38;;;;;;;7.95;0.88;;;4.60;99.90;;;;;;4928273;29;20059;-74
2022/11/22 07:48:03;;;;;;;5.55;0.60;;;4.60;99.90;;;;;;4928009;29;20063;-74
2022/11/22 07:50:29;;;;;;;4.82;0.80;;;4.70;99.90;;;;;;4918994;29;20487;-74
2022/11/22 07:52:58;;;;;;;5.45;0.90;;;4.80;99.90;;;;;;4922838;29;20383;-74
2022/11/22 07:55:25;;;;;;;2.08;0.82;;;5.00;99.90;;;;;;4924309;29;20054;-74
2022/11/22 07:57:56;;;;;;;3.53;0.70;;;5.10;99.90;;;;;;4922164;29;20095;-74
2022/11/22 08:00:22;;;;;;;1.88;0.80;;;5.20;99.90;;;;;;4926184;29;20039;-74
2022/11/22 08:02:48;;;;;;;2.70;0.65;;;5.30;99.90;;;;;;4923261;29;20438;-74
2022/11/22 08:05:13;;;;;;;3.15;0.80;;;5.30;99.90;;;;;;4916945;29;20382;-74
2022/11/22 08:07:44;;;;;;;7.10;1.00;;;5.30;99.90;;;;;;4922735;29;20039;-74
2022/11/22 08:10:09;;;;;;;2.50;0.63;;;5.30;99.90;;;;;;4928788;29;20484;-74
2022/11/22 08:12:35;;;;;;;6.10;0.70;;;5.40;99.90;;;;;;4927114;29;20103;-74
2022/11/22 08:15:00;;;;;;;5.93;0.73;;;5.40;99.90;;;;;;4928632;29;20090;-74
2022/11/22 08:17:26;;;;;;;5.55;0.88;;;5.50;99.90;;;;;;4921823;29;20040;-75
2022/11/22 08:19:52;;;;;;;3.05;0.60;;;5.50;99.90;;;;;;4924835;29;20510;-74
2022/11/22 08:22:18;;;;;;;3.72;0.90;;;5.40;99.90;;;;;;4924040;29;20059;-74
2022/11/22 08:24:43;;;;;;;5.25;0.80;;;5.30;99.90;;;;;;4926602;29;20066;-74
2022/11/22 08:27:09;;;;;;;5.32;0.57;;;5.20;99.90;;;;;;4923688;29;20032;-74
2022/11/22 08:29:34;;;;;;;1.20;0.55;;;5.20;99.90;;;;;;4926709;29;20042;-74
2022/11/22 08:32:00;;;;;;;2.33;0.63;;;5.10;99.90;;;;;;4918900;29;20124;-72
2022/11/22 08:34:26;;;;;;;3.40;0.73;;;5.10;99.90;;;;;;4916582;29;20043;-74
2022/11/22 08:36:51;;;;;;;1.60;0.75;;;5.30;99.90;;;;;;4919853;29;20567;-74
2022/11/22 08:39:17;;;;;;;3.58;1.17;;;5.60;99.90;;;;;;4914535;29;20032;-74
2022/11/22 08:41:42;;;;;;;4.75;1.30;;;5.90;99.90;;;;;;4914471;29;20046;-75
2022/11/22 08:44:08;;;;;;;3.58;1.40;;;5.90;99.90;;;;;;4915929;29;20066;-74
2022/11/22 08:46:33;;;;;;;4.05;0.88;;;6.00;99.90;;;;;;4921372;29;20064;-74
2022/11/22 08:48:59;;;;;;;1.38;0.70;;;5.90;99.90;;;;;;4915167;29;20107;-74
2022/11/22 08:51:25;;;;;;;5.10;1.15;;;5.90;99.90;;;;;;4914541;29;20036;-74
2022/11/22 08:53:50;;;;;;;2.58;1.02;;;6.20;99.90;;;;;;4916421;29;20039;-74
2022/11/22 08:56:16;;;;;;;1.80;0.70;;;6.60;99.90;;;;;;4916354;29;20520;-74
2022/11/22 08:58:42;;;;;;;3.25;0.88;;;7.20;99.90;;;;;;4912273;29;20040;-74
2022/11/22 09:01:09;;;;;;;2.13;0.50;;;8.50;99.10;;;;;;4918067;29;20039;-75
2022/11/22 09:03:36;;;;;;;1.25;0.60;;;10.00;93.80;;;;;;4914883;28;20051;-75
2022/11/22 09:06:04;;;;;;;1.95;0.40;;;11.30;87.70;;;;;;4924463;29;20039;-75
2022/11/22 09:08:30;;;;;;;1.98;0.70;;;11.60;83.50;;;;;;4918479;28;20141;-75
2022/11/22 09:11:00;;;;;;;3.08;0.70;;;11.50;84.20;;;;;;4911653;29;20039;-74
2022/11/22 09:13:26;;;;;;;2.25;0.40;;;11.20;86.50;;;;;;4911662;29;20035;-75
2022/11/22 09:15:52;;;;;;;1.38;0.50;;;11.10;88.90;;;;;;4910666;29;20319;-75
2022/11/22 09:18:17;;;;;;;1.20;0.40;;;11.20;90.10;;;;;;4908600;29;20032;-74
2022/11/22 09:20:43;;;;;;;1.70;0.50;;;11.50;89.10;;;;;;4907607;29;20035;-74
2022/11/22 09:23:08;;;;;;;2.05;0.43;;;11.80;87.80;;;;;;4914905;29;20035;-75
2022/11/22 09:25:34;;;;;;;2.38;0.40;;;12.10;86.90;;;;;;4909114;29;20035;-75
2022/11/22 09:28:02;;;;;;;2.40;0.40;;;12.10;86.70;;;;;;4913201;29;20062;-74
2022/11/22 09:30:29;;;;;;;1.17;0.73;;;12.10;86.30;;;;;;4911624;29;20036;-75
2022/11/22 09:32:55;;;;;;;2.38;0.30;;;11.90;86.50;;;;;;4908341;29;20040;-75
2022/11/22 09:35:20;;;;;;;1.52;0.30;;;11.70;88.50;;;;;;4917730;28;20472;-74
2022/11/22 09:37:46;;;;;;;2.33;0.60;;;11.40;90.10;;;;;;4922314;29;20042;-75
2022/11/22 09:40:14;;;;;;;1.10;0.50;;;11.30;90.80;;;;;;4921746;29;20028;-74
2022/11/22 09:42:53;;;;;;;2.03;0.40;;;11.10;91.30;;;;;;4915492;29;20028;-74
2022/11/22 09:45:41;;;;;;;1.10;0.50;;;10.90;91.40;;;;;;4919976;29;20032;-74
2022/11/22 09:48:35;;;;;;;2.00;0.38;;;10.70;92.20;;;;;;4913914;29;20115;-74
2022/11/22 09:51:18;;;;;;;1.75;0.52;;;10.20;93.00;;;;;;4920192;29;20257;-75
2022/11/22 09:53:57;;;;;;;5.18;1.30;;;10.00;93.90;;;;;;4915541;28;20138;-74
2022/11/22 09:56:25;;;;;;;2.88;0.90;;;9.90;94.20;;;;;;4920358;29;20046;-75
2022/11/22 09:59:14;;;;;;;2.95;1.02;;;10.10;93.90;;;;;;4915822;29;21263;-75
2022/11/22 10:01:46;;;;;;;2.83;0.60;;;10.50;93.50;;;;;;4907454;29;20383;-75
2022/11/22 10:04:21;;;;;;;1.50;0.45;;;10.80;92.90;;;;;;4907546;29;20054;-74
2022/11/22 10:06:54;;;;;;;1.23;0.32;;;10.90;92.30;;;;;;4905571;29;20553;-74
2022/11/22 10:09:27;;;;;;;1.27;0.70;;;11.10;92.10;;;;;;4919078;29;20036;-74
2022/11/22 10:12:17;;;;;;;1.33;0.50;;;11.10;91.60;;;;;;4905328;29;20036;-75
2022/11/22 10:15:23;;;;;;;0.75;0.22;;;11.40;91.70;;;;;;4904926;29;20430;-75
2022/11/22 10:18:10;;;;;;;2.40;0.32;;;11.70;90.80;;;;;;4922169;29;20039;-75
2022/11/22 10:20:39;;;;;;;0.82;0.38;;;11.90;87.70;;;;;;4924031;29;20083;-75
2022/11/22 10:23:22;;;;;;;1.20;0.30;;;12.20;89.10;;;;;;4924359;29;20298;-75
2022/11/22 10:26:10;;;;;;;4.28;0.52;;;12.50;87.30;;;;;;4923943;29;20055;-74
2022/11/22 10:29:05;;;;;;;4.10;0.77;;;12.80;84.80;;;;;;4922639;29;20037;-75
2022/11/22 10:31:43;;;;;;;2.20;0.50;;;12.90;84.60;;;;;;4923812;29;20118;-75
2022/11/22 10:34:23;;;;;;;2.50;0.30;;;13.20;83.40;;;;;;4911322;29;20032;-74
2022/11/22 10:37:19;;;;;;;1.20;0.28;;;13.30;82.80;;;;;;4911698;29;20051;-73
2022/11/22 10:40:19;;;;;;;2.63;0.35;;;13.40;81.40;;;;;;4904969;29;20084;-73
2022/11/22 10:42:56;;;;;;;2.25;0.40;;;13.80;80.30;;;;;;4904865;29;20032;-73
2022/11/22 10:45:30;;;;;;;1.85;0.43;;;14.00;76.90;;;;;;4904689;29;20040;-73
2022/11/22 10:48:20;;;;;;;1.42;0.40;;;14.50;76.60;;;;;;4921733;29;20072;-74
2022/11/22 10:50:46;;;;;;;2.83;0.38;;;15.30;71.90;;;;;;4913934;29;20114;-73
2022/11/22 10:53:24;;;;;;;1.92;0.70;;;16.10;68.90;;;;;;4918083;29;20110;-73
2022/11/22 10:55:59;;;;;;;1.55;0.32;;;16.80;64.90;;;;;;4909350;29;20048;-73
2022/11/22 10:58:39;;;;;;;1.65;0.52;;;16.90;63.90;;;;;;4920434;29;20055;-73
2022/11/22 11:01:14;;;;;;;1.92;0.60;;;17.50;60.90;;;;;;4922310;29;20032;-73
2022/11/22 11:03:43;;;;;;;0.90;0.40;;;17.90;58.70;;;;;;4923376;29;20477;-73
2022/11/22 11:06:20;;;;;;;3.70;0.88;;;18.70;56.80;;;;;;4921396;29;20055;-74
2022/11/22 11:08:55;;;;;;;6.18;0.60;;;19.50;54.40;;;;;;4899528;29;20771;-73
2022/11/22 11:11:23;;;;;;;6.10;1.35;;;20.00;51.80;;;;;;4914155;29;20032;-73
2022/11/22 11:13:58;;;;;;;7.68;0.82;;;19.70;53.20;;;;;;4913323;29;20036;-73
2022/11/22 11:16:32;;;;;;;5.43;0.70;;;18.80;54.60;;;;;;4904668;29;20044;-74
2022/11/22 11:19:04;;;;;;;5.40;0.90;;;18.20;58.40;;;;;;4899923;29;20107;-74
2022/11/22 11:21:29;;;;;;;4.32;0.90;;;17.60;61.60;;;;;;4900764;29;20155;-73
2022/11/22 11:23:55;;;;;;;7.40;1.10;;;16.70;64.30;;;;;;4911184;29;20558;-74
2022/11/22 11:26:27;;;;;;;10.95;0.93;;;16.70;65.30;;;;;;4906865;29;20037;-73
2022/11/22 11:29:16;;;;;;;8.82;1.05;;;16.50;67.10;;;;;;4917870;29;20036;-74
2022/11/22 11:31:47;;;;;;;6.10;1.13;;;16.30;68.20;;;;;;4905735;29;20032;-73
2022/11/22 11:34:23;;;;;;;7.20;1.13;;;16.50;68.50;;;;;;4912614;29;20040;-73
2022/11/22 11:36:49;;;;;;;5.78;0.93;;;16.60;67.80;;;;;;4913831;29;20124;-73
2022/11/22 11:39:44;;;;;;;10.45;1.45;;;16.50;69.20;;;;;;4917584;29;20066;-73
2022/11/22 11:42:23;;;;;;;4.57;1.25;;;16.70;65.90;;;;;;4914815;29;20079;-74
2022/11/22 11:44:48;;;;;;;7.38;1.40;;;16.60;67.70;;;;;;4913688;29;20036;-74
2022/11/22 11:47:29;;;;;;;6.07;1.30;;;16.50;67.80;;;;;;4915845;29;20047;-73
2022/11/22 11:49:55;;;;;;;9.60;1.48;;;16.20;68.90;;;;;;4918378;29;20080;-73
2022/11/22 11:52:22;;;;;;;6.85;1.40;;;16.30;71.80;;;;;;4922717;29;20036;-74
2022/11/22 11:54:53;;;;;;;9.75;1.38;;;16.20;70.10;;;;;;4917399;29;20825;-74
2022/11/22 11:57:30;;;;;;;8.75;1.33;;;15.90;70.90;;;;;;4923021;29;20479;-74
2022/11/22 11:59:59;;;;;;;7.50;1.33;;;15.70;70.80;;;;;;4911418;29;20032;-73
2022/11/22 12:02:32;;;;;;;6.00;1.10;;;15.10;71.80;;;;;;4920230;29;20122;-75
2022/11/22 12:05:02;;;;;;;10.05;1.27;;;14.80;74.60;;;;;;4919612;29;20031;-74
2022/11/22 12:07:33;;;;;;;6.55;1.02;;;14.40;75.10;;;;;;4926470;29;20165;-74
2022/11/22 12:10:00;;;;;;;6.93;1.25;;;13.80;77.60;;;;;;4920761;29;20027;-73
2022/11/22 12:12:36;;;;;;;10.43;1.33;;;13.50;80.00;;;;;;4920576;29;20668;-73
2022/11/22 12:15:24;;;;;;;9.15;1.20;;;13.00;81.70;;;;;;4919626;29;20545;-74
2022/11/22 12:18:37;;;;;;;11.57;1.80;;;12.70;83.10;;;;;;4924239;29;20036;-74
2022/11/22 12:21:21;;;;;;;11.30;1.25;;;12.30;87.10;;;;;;4857256;29;20059;-74
2022/11/22 12:23:59;;;;;;;12.00;1.75;;;12.10;88.20;;;;;;4907338;29;20040;-75
2022/11/22 12:26:26;;;;;;;8.20;1.58;;;11.90;90.10;;;;;;4920373;29;20023;-74
2022/11/22 12:28:53;;;;;;;10.32;1.45;;;11.80;90.90;;;;;;4914772;29;20729;-73
2022/11/22 12:31:46;;;;;;;19.58;4.55;;;11.70;91.30;;;;;;4918913;29;20437;-74
2022/11/22 12:34:33;;;;;;;6.30;1.88;;;11.70;91.60;;;;;;4912854;29;20169;-74
2022/11/22 12:37:14;;;;;;;13.77;2.00;;;11.90;91.10;;;;;;4917443;29;20423;-74
2022/11/22 12:39:44;;;;;;;;;;;12.20;90.70;;;;;;4912409;29;20856;-74
2022/11/22 12:42:20;;;;;;;6.15;1.35;;;12.50;89.50;;;;;;4918038;29;19936;-74
2022/11/22 12:44:55;;;;;;;4.88;1.00;;;12.80;90.00;;;;;;4919167;29;20071;-74
2022/11/22 12:47:27;;;;;;;5.50;0.95;;;12.80;88.40;;;;;;4913793;29;20032;-74
2022/11/22 12:50:01;;;;;;;23.88;7.03;;;12.60;87.10;;;;;;4913427;29;20530;-74
2022/11/22 12:52:44;;;;;;;15.43;2.35;;;12.40;88.70;;;;;;4917574;29;20567;-74
2022/11/22 12:55:09;;;;;;;7.05;1.60;;;12.40;88.90;;;;;;4934610;28;20171;-74
2022/11/22 12:58:02;;;;;;;6.32;1.35;;;12.40;90.10;;;;;;4915014;29;20194;-73
2022/11/22 13:00:33;;;;;;;8.27;1.40;;;12.30;90.20;;;;;;4908550;29;21522;-74
2022/11/22 13:03:02;;;;;;;8.52;1.40;;;12.20;90.20;;;;;;4906284;29;20408;-75
2022/11/22 13:05:44;;;;;;;7.30;1.02;;;11.90;91.50;;;;;;4906737;29;20028;-74
2022/11/22 13:08:46;;;;;;;5.60;1.30;;;11.80;91.60;;;;;;4915534;29;20036;-74
2022/11/22 13:11:21;;;;;;;9.73;1.23;;;11.70;92.00;;;;;;4906017;29;20188;-74
2022/11/22 13:13:50;;;;;;;7.88;1.30;;;11.60;92.50;;;;;;4908760;29;20028;-75
2022/11/22 13:16:16;;;;;;;10.85;1.35;;;11.60;92.70;;;;;;4916224;29;20318;-74
2022/11/22 13:18:59;;;;;;;10.27;1.42;;;11.80;92.40;;;;;;4900292;29;20046;-74